createdAt,value
2018-01-29T00:01:00.057Z,9.78
2018-01-29T00:02:01.904Z,9.81
2018-01-29T00:03:03.758Z,9.81
2018-01-29T00:04:05.613Z,9.76
2018-01-29T00:05:07.403Z,9.90
2018-01-29T00:06:09.197Z,9.87
2018-01-29T00:07:11.073Z,9.84
2018-01-29T00:08:12.927Z,9.86
2018-01-29T00:09:14.801Z,10.02
2018-01-29T00:10:28.925Z,9.97
2018-01-29T00:11:30.801Z,9.93
2018-01-29T00:12:32.673Z,9.87
2018-01-29T00:13:34.546Z,9.78
2018-01-29T00:14:36.333Z,9.89
2018-01-29T00:15:38.128Z,9.83
2018-01-29T00:16:39.986Z,9.83
2018-01-29T00:17:41.868Z,9.83
2018-01-29T00:18:43.736Z,9.81
2018-01-29T00:19:57.867Z,9.75
2018-01-29T00:20:59.744Z,9.78
2018-01-29T00:22:01.617Z,9.79
2018-01-29T00:23:03.472Z,9.79
2018-01-29T00:24:05.283Z,9.79
2018-01-29T00:25:07.094Z,9.78
2018-01-29T00:26:08.945Z,9.84
2018-01-29T00:27:10.800Z,9.78
2018-01-29T00:28:12.654Z,9.76
2018-01-29T00:29:26.778Z,9.79
2018-01-29T00:30:28.631Z,9.86
2018-01-29T00:31:30.489Z,9.72
2018-01-29T00:32:32.361Z,9.69
2018-01-29T00:33:34.175Z,9.65
2018-01-29T00:34:35.969Z,9.71
2018-01-29T00:35:37.840Z,9.56
2018-01-29T00:36:39.699Z,9.60
2018-01-29T00:37:41.556Z,9.58
2018-01-29T00:38:55.700Z,9.65
2018-01-29T00:39:57.579Z,9.56
2018-01-29T00:40:59.439Z,9.56
2018-01-29T00:42:01.321Z,9.51
2018-01-29T00:43:03.132Z,9.54
2018-01-29T00:44:04.945Z,9.60
2018-01-29T00:45:06.798Z,9.66
2018-01-29T00:46:08.651Z,9.68
2018-01-29T00:47:10.529Z,9.64
2018-01-29T00:48:24.652Z,9.56
2018-01-29T00:49:26.508Z,9.64
2018-01-29T00:50:28.382Z,9.56
2018-01-29T00:51:30.231Z,9.58
2018-01-29T00:52:32.021Z,9.57
2018-01-29T00:53:33.815Z,9.58
2018-01-29T00:54:35.670Z,9.53
2018-01-29T00:55:37.541Z,9.58
2018-01-29T00:56:39.393Z,9.50
2018-01-29T00:57:53.529Z,9.57
2018-01-29T00:58:55.407Z,9.50
2018-01-29T00:59:57.282Z,9.48
2018-01-29T01:00:59.155Z,9.57
2018-01-29T01:02:00.949Z,9.54
2018-01-29T01:03:02.757Z,9.56
2018-01-29T01:04:04.607Z,9.58
2018-01-29T01:05:06.462Z,9.60
2018-01-29T01:06:08.334Z,9.54
2018-01-29T01:07:22.481Z,9.61
2018-01-29T01:08:24.337Z,9.65
2018-01-29T01:09:26.213Z,9.69
2018-01-29T01:10:28.088Z,9.78
2018-01-29T01:11:29.897Z,9.78
2018-01-29T01:12:31.709Z,9.69
2018-01-29T01:13:33.582Z,9.66
2018-01-29T01:14:35.430Z,9.64
2018-01-29T01:15:37.284Z,9.57
2018-01-29T01:16:51.429Z,9.64
2018-01-29T01:17:53.306Z,9.61
2018-01-29T01:18:55.180Z,9.69
2018-01-29T01:19:57.049Z,9.68
2018-01-29T01:20:58.843Z,9.84
2018-01-29T01:22:00.639Z,9.87
2018-01-29T01:23:02.505Z,9.91
2018-01-29T01:24:04.362Z,10.02
2018-01-29T01:25:06.234Z,9.90
2018-01-29T01:26:20.408Z,9.90
2018-01-29T01:27:22.265Z,9.96
2018-01-29T01:28:24.140Z,9.89
2018-01-29T01:29:26.013Z,9.83
2018-01-29T01:30:27.830Z,9.83
2018-01-29T01:31:29.640Z,9.83
2018-01-29T01:32:31.509Z,9.75
2018-01-29T01:33:33.367Z,9.81
2018-01-29T01:34:35.224Z,9.75
2018-01-29T01:35:49.370Z,9.81
2018-01-29T01:36:51.249Z,9.74
2018-01-29T01:37:53.098Z,9.78
2018-01-29T01:38:54.971Z,9.83
2018-01-29T01:39:56.790Z,9.81
2018-01-29T01:40:58.599Z,9.86
2018-01-29T01:42:00.453Z,9.86
2018-01-29T01:43:02.328Z,9.94
2018-01-29T01:44:04.198Z,9.94
2018-01-29T01:45:18.322Z,9.99
2018-01-29T01:46:20.188Z,9.99
2018-01-29T01:47:22.035Z,9.89
2018-01-29T01:48:23.889Z,9.94
2018-01-29T01:49:25.705Z,10.02
2018-01-29T01:50:27.517Z,9.90
2018-01-29T01:51:29.366Z,10.07
2018-01-29T01:52:31.219Z,9.99
2018-01-29T01:53:33.073Z,9.94
2018-01-29T01:54:47.268Z,10.09
2018-01-29T01:55:49.120Z,9.93
2018-01-29T01:56:50.996Z,10.01
2018-01-29T01:57:52.844Z,9.87
2018-01-29T01:58:54.635Z,9.90
2018-01-29T01:59:56.432Z,9.87
2018-01-29T02:00:58.307Z,9.89
2018-01-29T02:02:00.154Z,9.93
2018-01-29T02:03:02.009Z,9.94
2018-01-29T02:04:16.201Z,9.90
2018-01-29T02:05:18.056Z,10.01
2018-01-29T02:06:19.908Z,9.86
2018-01-29T02:07:21.767Z,9.94
2018-01-29T02:08:23.553Z,9.89
2018-01-29T02:09:25.342Z,9.89
2018-01-29T02:10:27.194Z,9.86
2018-01-29T02:11:29.051Z,9.93
2018-01-29T02:12:30.917Z,9.90
2018-01-29T02:13:45.043Z,9.81
2018-01-29T02:14:46.901Z,9.79
2018-01-29T02:15:48.752Z,9.89
2018-01-29T02:16:50.605Z,9.91
2018-01-29T02:17:52.419Z,9.81
2018-01-29T02:18:54.226Z,9.87
2018-01-29T02:19:56.083Z,9.91
2018-01-29T02:20:57.949Z,9.83
2018-01-29T02:21:59.823Z,9.74
2018-01-29T02:23:13.943Z,9.78
2018-01-29T02:24:15.800Z,9.78
2018-01-29T02:25:17.657Z,9.84
2018-01-29T02:26:19.537Z,9.79
2018-01-29T02:27:21.346Z,9.81
2018-01-29T02:28:23.159Z,9.79
2018-01-29T02:29:25.028Z,9.83
2018-01-29T02:30:26.883Z,9.83
2018-01-29T02:31:28.755Z,9.78
2018-01-29T02:32:42.903Z,9.72
2018-01-29T02:33:44.776Z,9.71
2018-01-29T02:34:46.629Z,9.71
2018-01-29T02:35:48.499Z,9.71
2018-01-29T02:36:50.316Z,9.68
2018-01-29T02:37:52.124Z,9.78
2018-01-29T02:38:53.979Z,9.76
2018-01-29T02:39:55.847Z,9.78
2018-01-29T02:40:57.697Z,9.86
2018-01-29T02:42:11.816Z,9.79
2018-01-29T02:43:13.664Z,9.83
2018-01-29T02:44:15.521Z,9.74
2018-01-29T02:45:17.375Z,9.81
2018-01-29T02:46:19.170Z,9.81
2018-01-29T02:47:20.956Z,9.79
2018-01-29T02:48:22.829Z,9.76
2018-01-29T02:49:24.681Z,9.79
2018-01-29T02:50:26.530Z,9.83
2018-01-29T02:51:40.672Z,9.75
2018-01-29T02:52:42.531Z,9.74
2018-01-29T02:53:44.401Z,9.72
2018-01-29T02:54:46.255Z,9.75
2018-01-29T02:55:48.066Z,9.86
2018-01-29T02:56:49.857Z,9.74
2018-01-29T02:57:51.703Z,9.68
2018-01-29T02:58:53.557Z,9.68
2018-01-29T02:59:55.431Z,9.66
2018-01-29T03:01:09.577Z,9.66
2018-01-29T03:02:11.448Z,9.69
2018-01-29T03:03:13.323Z,9.72
2018-01-29T03:04:15.196Z,9.66
2018-01-29T03:05:16.989Z,9.61
2018-01-29T03:06:18.802Z,9.54
2018-01-29T03:07:20.672Z,9.57
2018-01-29T03:08:22.520Z,9.68
2018-01-29T03:09:24.373Z,9.66
2018-01-29T03:10:38.513Z,9.58
2018-01-29T03:11:40.369Z,9.57
2018-01-29T03:12:42.218Z,9.56
2018-01-29T03:13:44.075Z,9.40
2018-01-29T03:14:45.865Z,9.42
2018-01-29T03:15:47.656Z,9.48
2018-01-29T03:16:49.534Z,9.42
2018-01-29T03:17:51.406Z,9.51
2018-01-29T03:18:53.275Z,9.48
2018-01-29T03:20:07.414Z,9.58
2018-01-29T03:21:09.273Z,9.64
2018-01-29T03:22:11.128Z,9.69
2018-01-29T03:23:12.982Z,9.66
2018-01-29T03:24:14.791Z,9.69
2018-01-29T03:25:16.608Z,9.74
2018-01-29T03:26:18.479Z,9.81
2018-01-29T03:27:20.351Z,9.72
2018-01-29T03:28:22.203Z,9.72
2018-01-29T03:29:36.390Z,9.76
2018-01-29T03:30:38.249Z,9.74
2018-01-29T03:31:40.117Z,9.75
2018-01-29T03:32:41.988Z,9.83
2018-01-29T03:33:43.779Z,9.72
2018-01-29T03:34:45.568Z,9.68
2018-01-29T03:35:47.423Z,9.71
2018-01-29T03:36:49.290Z,9.71
2018-01-29T03:37:51.146Z,9.69
2018-01-29T03:39:05.286Z,9.78
2018-01-29T03:40:07.141Z,9.81
2018-01-29T03:41:09.014Z,9.81
2018-01-29T03:42:10.864Z,9.87
2018-01-29T03:43:12.669Z,9.84
2018-01-29T03:44:14.459Z,9.97
2018-01-29T03:45:16.253Z,9.99
2018-01-29T03:46:18.086Z,10.18
2018-01-29T03:47:19.897Z,10.33
2018-01-29T03:48:34.044Z,10.34
2018-01-29T03:49:35.920Z,10.42
2018-01-29T03:50:37.792Z,10.44
2018-01-29T03:51:39.648Z,10.36
2018-01-29T03:52:41.459Z,10.48
2018-01-29T03:53:43.254Z,10.41
2018-01-29T03:54:45.130Z,10.40
2018-01-29T03:55:47.003Z,10.48
2018-01-29T03:56:48.873Z,10.48
2018-01-29T03:58:03.002Z,10.44
2018-01-29T03:59:04.876Z,10.41
2018-01-29T04:00:06.729Z,10.34
2018-01-29T04:01:08.597Z,10.33
2018-01-29T04:02:10.395Z,10.30
2018-01-29T04:03:12.205Z,10.25
2018-01-29T04:04:14.067Z,10.32
2018-01-29T04:05:15.933Z,10.36
2018-01-29T04:06:17.792Z,10.36
2018-01-29T04:07:31.943Z,10.36
2018-01-29T04:08:33.818Z,10.42
2018-01-29T04:09:35.688Z,10.42
2018-01-29T04:10:37.545Z,10.42
2018-01-29T04:11:39.359Z,10.38
2018-01-29T04:12:41.171Z,10.33
2018-01-29T04:13:43.023Z,10.44
2018-01-29T04:14:44.876Z,10.33
2018-01-29T04:15:46.744Z,10.36
2018-01-29T04:17:00.876Z,10.33
2018-01-29T04:18:02.751Z,10.23
2018-01-29T04:19:04.607Z,10.17
2018-01-29T04:20:06.468Z,10.15
2018-01-29T04:21:08.273Z,10.11
2018-01-29T04:22:10.064Z,10.11
2018-01-29T04:23:11.920Z,9.97
2018-01-29T04:24:13.794Z,10.07
2018-01-29T04:25:15.663Z,10.01
2018-01-29T04:26:29.787Z,10.15
2018-01-29T04:27:31.647Z,10.12
2018-01-29T04:28:33.508Z,10.23
2018-01-29T04:29:35.365Z,10.17
2018-01-29T04:30:37.181Z,10.26
2018-01-29T04:31:38.994Z,10.23
2018-01-29T04:32:40.864Z,10.34
2018-01-29T04:33:42.717Z,10.29
2018-01-29T04:34:44.578Z,10.23
2018-01-29T04:35:58.741Z,10.27
2018-01-29T04:37:00.599Z,10.32
2018-01-29T04:38:02.474Z,10.30
2018-01-29T04:39:04.344Z,10.26
2018-01-29T04:40:06.137Z,10.32
2018-01-29T04:41:07.929Z,10.41
2018-01-29T04:42:09.804Z,10.48
2018-01-29T04:43:11.652Z,10.56
2018-01-29T04:44:13.504Z,10.52
2018-01-29T04:45:27.634Z,10.45
2018-01-29T04:46:29.503Z,10.42
2018-01-29T04:47:31.360Z,10.56
2018-01-29T04:48:33.235Z,10.55
2018-01-29T04:49:35.022Z,10.59
2018-01-29T04:50:36.814Z,10.61
2018-01-29T04:51:38.669Z,10.66
2018-01-29T04:52:40.541Z,10.66
2018-01-29T04:53:42.416Z,10.55
2018-01-29T04:54:56.563Z,10.64
2018-01-29T04:55:58.401Z,10.70
2018-01-29T04:57:00.295Z,10.70
2018-01-29T04:58:02.182Z,10.66
2018-01-29T04:59:03.977Z,10.71
2018-01-29T05:00:05.769Z,10.76
2018-01-29T05:01:07.625Z,10.91
2018-01-29T05:02:09.476Z,10.84
2018-01-29T05:03:11.334Z,10.84
2018-01-29T05:04:25.473Z,10.89
2018-01-29T05:05:27.336Z,10.78
2018-01-29T05:06:29.210Z,10.76
2018-01-29T05:07:31.065Z,10.73
2018-01-29T05:08:32.855Z,10.89
2018-01-29T05:09:34.670Z,11.00
2018-01-29T05:10:36.525Z,10.97
2018-01-29T05:11:38.389Z,10.92
2018-01-29T05:12:40.242Z,10.94
2018-01-29T05:13:54.389Z,10.86
2018-01-29T05:14:56.264Z,10.85
2018-01-29T05:15:58.120Z,10.82
2018-01-29T05:16:59.994Z,10.81
2018-01-29T05:18:01.803Z,10.82
2018-01-29T05:19:03.596Z,10.94
2018-01-29T05:20:05.473Z,10.88
2018-01-29T05:21:07.344Z,10.94
2018-01-29T05:22:09.216Z,10.89
2018-01-29T05:23:23.362Z,11.00
2018-01-29T05:24:25.237Z,11.06
2018-01-29T05:25:27.091Z,11.06
2018-01-29T05:26:28.962Z,11.10
2018-01-29T05:27:30.751Z,10.97
2018-01-29T05:28:32.547Z,11.00
2018-01-29T05:29:34.417Z,10.94
2018-01-29T05:30:36.275Z,10.94
2018-01-29T05:31:38.148Z,10.86
2018-01-29T05:32:52.372Z,10.88
2018-01-29T05:33:54.240Z,10.96
2018-01-29T05:34:56.103Z,11.00
2018-01-29T05:35:57.976Z,11.03
2018-01-29T05:36:59.785Z,11.10
2018-01-29T05:38:01.595Z,11.06
2018-01-29T05:39:03.445Z,10.94
2018-01-29T05:40:05.314Z,10.89
2018-01-29T05:41:07.169Z,11.02
2018-01-29T05:42:21.346Z,11.09
2018-01-29T05:43:23.221Z,10.99
2018-01-29T05:44:25.097Z,11.09
2018-01-29T05:45:26.972Z,11.10
2018-01-29T05:46:28.785Z,11.22
2018-01-29T05:47:30.579Z,11.22
2018-01-29T05:48:32.430Z,11.19
2018-01-29T05:49:34.305Z,11.22
2018-01-29T05:50:36.173Z,11.37
2018-01-29T05:51:50.349Z,11.35
2018-01-29T05:52:52.210Z,11.49
2018-01-29T05:53:54.067Z,11.42
2018-01-29T05:54:55.926Z,11.43
2018-01-29T05:55:57.742Z,11.43
2018-01-29T05:56:59.553Z,11.40
2018-01-29T05:58:01.407Z,11.52
2018-01-29T05:59:03.261Z,11.46
2018-01-29T06:00:05.139Z,11.40
2018-01-29T06:01:19.286Z,11.43
2018-01-29T06:02:21.161Z,11.33
2018-01-29T06:03:23.038Z,11.40
2018-01-29T06:04:24.913Z,11.39
2018-01-29T06:05:26.725Z,11.49
2018-01-29T06:06:28.516Z,11.43
2018-01-29T06:07:30.366Z,11.57
2018-01-29T06:08:32.215Z,11.57
2018-01-29T06:09:34.077Z,11.60
2018-01-29T06:10:48.222Z,11.46
2018-01-29T06:11:50.096Z,11.49
2018-01-29T06:12:51.944Z,11.49
2018-01-29T06:13:53.800Z,11.42
2018-01-29T06:14:55.592Z,11.42
2018-01-29T06:15:57.387Z,11.49
2018-01-29T06:16:59.256Z,11.60
2018-01-29T06:18:01.110Z,11.52
2018-01-29T06:19:02.969Z,11.55
2018-01-29T06:20:17.089Z,11.57
2018-01-29T06:21:18.951Z,11.46
2018-01-29T06:22:20.808Z,11.57
2018-01-29T06:23:22.681Z,11.64
2018-01-29T06:24:24.494Z,11.52
2018-01-29T06:25:26.281Z,11.49
2018-01-29T06:26:28.138Z,11.47
2018-01-29T06:27:29.990Z,11.54
2018-01-29T06:28:31.850Z,11.43
2018-01-29T06:29:46.042Z,11.47
2018-01-29T06:30:47.901Z,11.40
2018-01-29T06:31:49.757Z,11.46
2018-01-29T06:32:51.626Z,11.37
2018-01-29T06:33:53.425Z,11.40
2018-01-29T06:34:55.236Z,11.37
2018-01-29T06:35:57.095Z,11.37
2018-01-29T06:36:58.945Z,11.39
2018-01-29T06:38:00.811Z,11.35
2018-01-29T06:39:14.952Z,11.29
2018-01-29T06:40:16.810Z,11.40
2018-01-29T06:41:18.689Z,11.37
2018-01-29T06:42:20.563Z,11.33
2018-01-29T06:43:22.362Z,11.29
2018-01-29T06:44:24.175Z,11.21
2018-01-29T06:45:26.051Z,11.24
2018-01-29T06:46:27.928Z,11.14
2018-01-29T06:47:29.807Z,11.11
2018-01-29T06:48:44.004Z,11.10
2018-01-29T06:49:45.858Z,11.03
2018-01-29T06:50:47.732Z,10.91
2018-01-29T06:51:49.585Z,11.02
2018-01-29T06:52:51.383Z,11.00
2018-01-29T06:53:53.179Z,11.03
2018-01-29T06:54:55.060Z,10.88
2018-01-29T06:55:56.935Z,11.06
2018-01-29T06:56:58.812Z,11.03
2018-01-29T06:58:12.958Z,10.97
2018-01-29T06:59:14.840Z,10.99
2018-01-29T07:00:16.720Z,10.96
2018-01-29T07:01:18.592Z,11.00
2018-01-29T07:02:20.407Z,10.99
2018-01-29T07:03:22.201Z,10.99
2018-01-29T07:04:24.083Z,11.03
2018-01-29T07:05:25.933Z,11.04
2018-01-29T07:06:27.796Z,11.09
2018-01-29T07:07:41.947Z,11.04
2018-01-29T07:08:43.826Z,11.07
2018-01-29T07:09:45.710Z,10.97
2018-01-29T07:10:47.590Z,10.97
2018-01-29T07:11:49.400Z,10.94
2018-01-29T07:12:51.204Z,10.94
2018-01-29T07:13:53.079Z,10.89
2018-01-29T07:14:54.937Z,11.02
2018-01-29T07:15:56.816Z,11.00
2018-01-29T07:17:10.942Z,11.04
2018-01-29T07:18:12.804Z,11.04
2018-01-29T07:19:14.682Z,11.07
2018-01-29T07:20:16.561Z,11.02
2018-01-29T07:21:18.355Z,11.18
2018-01-29T07:22:20.152Z,11.17
2018-01-29T07:23:22.030Z,11.19
2018-01-29T07:24:23.880Z,11.11
2018-01-29T07:25:25.741Z,11.11
2018-01-29T07:26:39.887Z,11.14
2018-01-29T07:27:41.765Z,11.15
2018-01-29T07:28:43.610Z,11.07
2018-01-29T07:29:45.485Z,10.97
2018-01-29T07:30:47.285Z,11.10
2018-01-29T07:31:49.100Z,11.17
2018-01-29T07:32:50.962Z,11.18
2018-01-29T07:33:52.826Z,11.35
2018-01-29T07:34:54.700Z,11.37
2018-01-29T07:36:08.831Z,11.44
2018-01-29T07:37:10.712Z,11.39
2018-01-29T07:38:12.597Z,11.40
2018-01-29T07:39:14.471Z,11.40
2018-01-29T07:40:16.272Z,11.33
2018-01-29T07:41:18.067Z,11.24
2018-01-29T07:42:19.926Z,11.37
2018-01-29T07:43:21.784Z,11.37
2018-01-29T07:44:23.648Z,11.49
2018-01-29T07:45:37.801Z,11.42
2018-01-29T07:46:39.686Z,11.46
2018-01-29T07:47:41.547Z,11.44
2018-01-29T07:48:43.429Z,11.44
2018-01-29T07:49:45.232Z,11.44
2018-01-29T07:50:47.047Z,11.49
2018-01-29T07:51:48.913Z,11.42
2018-01-29T07:52:50.794Z,11.54
2018-01-29T07:53:52.654Z,11.47
2018-01-29T07:55:06.810Z,11.39
2018-01-29T07:56:08.692Z,11.42
2018-01-29T07:57:10.550Z,11.40
2018-01-29T07:58:12.413Z,11.49
2018-01-29T07:59:14.212Z,11.46
2018-01-29T08:00:16.008Z,11.58
2018-01-29T08:01:17.872Z,11.55
2018-01-29T08:02:19.748Z,11.62
2018-01-29T08:03:21.613Z,11.75
2018-01-29T08:04:35.764Z,11.62
2018-01-29T08:05:37.620Z,11.73
2018-01-29T08:06:39.487Z,11.73
2018-01-29T08:07:41.370Z,11.80
2018-01-29T08:08:43.186Z,11.75
2018-01-29T08:09:45.007Z,11.82
2018-01-29T08:10:46.871Z,11.88
2018-01-29T08:11:48.749Z,11.98
2018-01-29T08:12:50.625Z,12.10
2018-01-29T08:14:04.761Z,12.20
2018-01-29T08:15:06.641Z,12.21
2018-01-29T08:16:08.502Z,12.34
2018-01-29T08:17:10.363Z,12.29
2018-01-29T08:18:12.165Z,12.34
2018-01-29T08:19:14.031Z,12.45
2018-01-29T08:20:15.849Z,12.42
2018-01-29T08:21:17.729Z,12.29
2018-01-29T08:22:19.606Z,12.29
2018-01-29T08:23:33.742Z,12.32
2018-01-29T08:24:35.623Z,12.31
2018-01-29T08:25:37.505Z,12.35
2018-01-29T08:26:39.385Z,12.32
2018-01-29T08:27:41.194Z,12.32
2018-01-29T08:28:42.985Z,12.35
2018-01-29T08:29:44.851Z,12.32
2018-01-29T08:30:46.711Z,12.32
2018-01-29T08:31:48.593Z,12.35
2018-01-29T08:33:02.748Z,12.32
2018-01-29T08:34:04.631Z,12.31
2018-01-29T08:35:06.491Z,12.32
2018-01-29T08:36:08.369Z,12.35
2018-01-29T08:37:10.170Z,12.45
2018-01-29T08:38:11.969Z,12.52
2018-01-29T08:39:13.852Z,12.54
2018-01-29T08:40:15.716Z,12.64
2018-01-29T08:41:17.560Z,12.74
2018-01-29T08:42:31.715Z,12.82
2018-01-29T08:43:33.589Z,12.96
2018-01-29T08:44:35.453Z,13.08
2018-01-29T08:45:37.318Z,13.11
2018-01-29T08:46:39.133Z,13.11
2018-01-29T08:47:40.939Z,13.05
2018-01-29T08:48:42.819Z,12.93
2018-01-29T08:49:44.682Z,12.90
2018-01-29T08:50:46.545Z,12.77
2018-01-29T08:52:00.700Z,12.92
2018-01-29T08:53:02.581Z,12.89
2018-01-29T08:54:04.443Z,12.90
2018-01-29T08:55:06.324Z,12.93
2018-01-29T08:56:08.121Z,13.04
2018-01-29T08:57:09.920Z,13.10
2018-01-29T08:58:11.787Z,13.08
2018-01-29T08:59:13.670Z,13.12
2018-01-29T09:00:15.560Z,13.08
2018-01-29T09:01:29.709Z,13.08
2018-01-29T09:02:31.564Z,13.00
2018-01-29T09:03:33.430Z,13.11
2018-01-29T09:04:35.308Z,13.07
2018-01-29T09:05:37.112Z,13.08
2018-01-29T09:06:38.907Z,13.00
2018-01-29T09:07:40.769Z,13.19
2018-01-29T09:08:42.629Z,13.23
2018-01-29T09:09:44.510Z,13.28
2018-01-29T09:10:58.642Z,13.36
2018-01-29T09:12:00.526Z,13.25
2018-01-29T09:13:02.390Z,13.29
2018-01-29T09:14:04.268Z,13.29
2018-01-29T09:15:06.070Z,13.42
2018-01-29T09:16:07.888Z,13.49
2018-01-29T09:17:09.723Z,13.60
2018-01-29T09:18:11.541Z,13.49
2018-01-29T09:19:13.361Z,13.59
2018-01-29T09:20:27.491Z,13.52
2018-01-29T09:21:29.351Z,13.52
2018-01-29T09:22:31.215Z,13.49
2018-01-29T09:23:33.098Z,13.52
2018-01-29T09:24:34.901Z,13.49
2018-01-29T09:25:36.722Z,13.54
2018-01-29T09:26:38.583Z,13.55
2018-01-29T09:27:40.441Z,13.55
2018-01-29T09:28:42.304Z,13.55
2018-01-29T09:29:56.439Z,13.64
2018-01-29T09:30:58.317Z,13.70
2018-01-29T09:32:00.180Z,13.81
2018-01-29T09:33:02.038Z,13.88
2018-01-29T09:34:03.922Z,14.02
2018-01-29T09:35:05.805Z,14.06
2018-01-29T09:36:07.673Z,14.07
2018-01-29T09:37:09.545Z,14.17
2018-01-29T09:38:11.417Z,14.20
2018-01-29T09:39:25.569Z,14.21
2018-01-29T09:40:27.437Z,14.25
2018-01-29T09:41:29.320Z,14.33
2018-01-29T09:42:31.178Z,14.22
2018-01-29T09:43:32.978Z,14.29
2018-01-29T09:44:34.778Z,14.37
2018-01-29T09:45:36.638Z,14.50
2018-01-29T09:46:38.503Z,14.55
2018-01-29T09:47:40.383Z,14.54
2018-01-29T09:48:54.543Z,14.47
2018-01-29T09:49:56.422Z,14.57
2018-01-29T09:50:58.310Z,14.57
2018-01-29T09:52:00.189Z,14.69
2018-01-29T09:53:01.993Z,14.83
2018-01-29T09:54:03.795Z,14.77
2018-01-29T09:55:05.674Z,14.77
2018-01-29T09:56:07.783Z,14.84
2018-01-29T09:57:09.646Z,14.73
2018-01-29T09:58:23.778Z,14.86
2018-01-29T09:59:25.643Z,14.96
2018-01-29T10:00:27.505Z,14.89
2018-01-29T10:01:29.374Z,14.89
2018-01-29T10:02:31.189Z,15.01
2018-01-29T10:03:32.984Z,14.94
2018-01-29T10:04:34.852Z,15.03
2018-01-29T10:05:36.711Z,14.99
2018-01-29T10:06:38.567Z,15.03
2018-01-29T10:07:52.705Z,15.10
2018-01-29T10:08:54.585Z,14.99
2018-01-29T10:09:56.452Z,15.03
2018-01-29T10:10:58.310Z,14.99
2018-01-29T10:12:00.113Z,15.02
2018-01-29T10:13:01.932Z,14.95
2018-01-29T10:14:03.817Z,14.89
2018-01-29T10:15:05.698Z,14.99
2018-01-29T10:16:07.576Z,14.84
2018-01-29T10:17:21.727Z,14.83
2018-01-29T10:18:23.592Z,14.75
2018-01-29T10:19:25.448Z,14.80
2018-01-29T10:20:27.315Z,14.78
2018-01-29T10:21:29.124Z,14.60
2018-01-29T10:22:30.928Z,14.58
2018-01-29T10:23:32.800Z,14.47
2018-01-29T10:24:34.658Z,14.54
2018-01-29T10:25:36.539Z,14.55
2018-01-29T10:26:50.672Z,14.61
2018-01-29T10:27:52.536Z,14.57
2018-01-29T10:28:54.424Z,14.47
2018-01-29T10:29:56.300Z,14.32
2018-01-29T10:30:58.100Z,14.35
2018-01-29T10:31:59.902Z,14.37
2018-01-29T10:33:01.786Z,14.35
2018-01-29T10:34:03.664Z,14.42
2018-01-29T10:35:05.523Z,14.39
2018-01-29T10:36:19.662Z,14.35
2018-01-29T10:37:21.543Z,14.29
2018-01-29T10:38:23.426Z,14.21
2018-01-29T10:39:25.311Z,14.03
2018-01-29T10:40:27.126Z,13.99
2018-01-29T10:41:28.928Z,13.99
2018-01-29T10:42:30.811Z,14.00
2018-01-29T10:43:32.688Z,14.03
2018-01-29T10:44:34.552Z,13.95
2018-01-29T10:45:48.707Z,14.17
2018-01-29T10:46:50.584Z,14.22
2018-01-29T10:47:52.446Z,14.20
2018-01-29T10:48:54.312Z,14.28
2018-01-29T10:49:56.110Z,14.36
2018-01-29T10:50:57.909Z,14.37
2018-01-29T10:51:59.786Z,14.47
2018-01-29T10:53:01.653Z,14.54
2018-01-29T10:54:03.507Z,14.55
2018-01-29T10:55:17.649Z,14.54
2018-01-29T10:56:19.574Z,14.46
2018-01-29T10:57:21.406Z,14.46
2018-01-29T10:58:23.287Z,14.37
2018-01-29T10:59:25.083Z,14.39
2018-01-29T11:00:26.887Z,14.42
2018-01-29T11:01:28.770Z,14.28
2018-01-29T11:02:30.647Z,14.22
2018-01-29T11:03:32.507Z,14.06
2018-01-29T11:04:46.642Z,14.02
2018-01-29T11:05:48.508Z,14.00
2018-01-29T11:06:50.359Z,13.99
2018-01-29T11:07:52.222Z,13.97
2018-01-29T11:08:54.019Z,13.88
2018-01-29T11:09:55.826Z,14.06
2018-01-29T11:10:57.704Z,13.99
2018-01-29T11:11:59.565Z,13.96
2018-01-29T11:13:01.449Z,13.99
2018-01-29T11:14:15.581Z,13.97
2018-01-29T11:15:17.465Z,14.09
2018-01-29T11:16:19.350Z,14.22
2018-01-29T11:17:21.224Z,14.25
2018-01-29T11:18:23.030Z,14.33
2018-01-29T11:19:24.850Z,14.33
2018-01-29T11:20:26.711Z,14.35
2018-01-29T11:21:28.590Z,14.40
2018-01-29T11:22:30.474Z,14.52
2018-01-29T11:23:44.624Z,14.47
2018-01-29T11:24:46.491Z,14.55
2018-01-29T11:25:48.368Z,14.47
2018-01-29T11:26:50.227Z,14.43
2018-01-29T11:27:52.033Z,14.45
2018-01-29T11:28:53.854Z,14.43
2018-01-29T11:29:55.736Z,14.36
2018-01-29T11:30:57.615Z,14.39
2018-01-29T11:31:59.473Z,14.33
2018-01-29T11:33:13.643Z,14.33
2018-01-29T11:34:15.480Z,14.25
2018-01-29T11:35:17.341Z,14.25
2018-01-29T11:36:19.198Z,14.18
2018-01-29T11:37:21.053Z,14.20
2018-01-29T11:38:22.828Z,14.17
2018-01-29T11:39:24.713Z,14.18
2018-01-29T11:40:26.590Z,14.21
2018-01-29T11:41:28.474Z,14.17
2018-01-29T11:42:42.604Z,14.21
2018-01-29T11:43:44.466Z,14.06
2018-01-29T11:44:46.330Z,13.87
2018-01-29T11:45:48.193Z,13.69
2018-01-29T11:46:50.009Z,13.78
2018-01-29T11:47:51.810Z,13.66
2018-01-29T11:48:53.690Z,13.67
2018-01-29T11:49:55.552Z,13.54
2018-01-29T11:50:57.433Z,13.64
2018-01-29T11:52:11.588Z,13.67
2018-01-29T11:53:13.466Z,13.85
2018-01-29T11:54:15.352Z,13.85
2018-01-29T11:55:17.233Z,13.78
2018-01-29T11:56:19.058Z,13.64
2018-01-29T11:57:20.873Z,13.46
2018-01-29T11:58:22.757Z,13.36
2018-01-29T11:59:24.630Z,13.49
2018-01-29T12:00:26.455Z,13.54
2018-01-29T12:01:40.604Z,13.57
2018-01-29T12:02:42.469Z,13.54
2018-01-29T12:03:44.350Z,13.77
2018-01-29T12:04:46.232Z,13.89
2018-01-29T12:05:48.029Z,13.89
2018-01-29T12:06:49.830Z,14.04
2018-01-29T12:07:51.712Z,14.22
2018-01-29T12:08:53.571Z,14.20
2018-01-29T12:09:55.450Z,14.14
2018-01-29T12:11:09.586Z,14.21
2018-01-29T12:12:11.466Z,14.22
2018-01-29T12:13:13.329Z,14.21
2018-01-29T12:14:15.209Z,14.25
2018-01-29T12:15:17.014Z,14.27
2018-01-29T12:16:18.831Z,14.24
2018-01-29T12:17:20.714Z,14.24
2018-01-29T12:18:22.590Z,14.20
2018-01-29T12:19:24.447Z,14.18
2018-01-29T12:20:38.589Z,14.45
2018-01-29T12:21:40.450Z,14.47
2018-01-29T12:22:42.328Z,14.52
2018-01-29T12:23:44.191Z,14.65
2018-01-29T12:24:45.987Z,14.75
2018-01-29T12:25:47.788Z,14.75
2018-01-29T12:26:49.648Z,14.60
2018-01-29T12:27:51.510Z,14.61
2018-01-29T12:28:53.391Z,14.55
2018-01-29T12:30:07.546Z,14.61
2018-01-29T12:31:09.426Z,14.72
2018-01-29T12:32:11.292Z,14.81
2018-01-29T12:33:13.178Z,14.88
2018-01-29T12:34:14.999Z,14.83
2018-01-29T12:35:16.791Z,14.62
2018-01-29T12:36:18.658Z,14.57
2018-01-29T12:37:20.497Z,14.52
2018-01-29T12:38:22.317Z,14.62
2018-01-29T12:39:36.454Z,14.60
2018-01-29T12:40:38.335Z,14.64
2018-01-29T12:41:40.197Z,14.78
2018-01-29T12:42:42.089Z,14.77
2018-01-29T12:43:43.895Z,14.80
2018-01-29T12:44:45.698Z,14.86
2018-01-29T12:45:47.581Z,14.75
2018-01-29T12:46:49.458Z,14.73
2018-01-29T12:47:51.324Z,14.78
2018-01-29T12:49:05.479Z,14.80
2018-01-29T12:50:07.360Z,14.83
2018-01-29T12:51:09.220Z,14.75
2018-01-29T12:52:11.079Z,14.88
2018-01-29T12:53:12.885Z,14.88
2018-01-29T12:54:14.684Z,14.89
2018-01-29T12:55:16.540Z,14.83
2018-01-29T12:56:18.401Z,14.99
2018-01-29T12:57:20.289Z,14.92
2018-01-29T12:58:34.446Z,15.02
2018-01-29T12:59:36.308Z,14.94
2018-01-29T13:00:38.186Z,14.84
2018-01-29T13:01:40.050Z,14.77
2018-01-29T13:02:41.854Z,14.68
2018-01-29T13:03:43.676Z,14.62
2018-01-29T13:04:45.553Z,14.73
2018-01-29T13:05:47.416Z,14.70
2018-01-29T13:06:49.274Z,14.62
2018-01-29T13:08:03.412Z,14.47
2018-01-29T13:09:05.293Z,14.46
2018-01-29T13:10:07.156Z,14.20
2018-01-29T13:11:09.016Z,14.06
2018-01-29T13:12:10.814Z,13.81
2018-01-29T13:13:12.612Z,13.82
2018-01-29T13:14:14.476Z,13.71
2018-01-29T13:15:16.345Z,13.71
2018-01-29T13:16:18.224Z,13.71
2018-01-29T13:17:32.361Z,13.84
2018-01-29T13:18:34.226Z,14.02
2018-01-29T13:19:36.107Z,14.18
2018-01-29T13:20:37.996Z,14.18
2018-01-29T13:21:39.814Z,14.43
2018-01-29T13:22:41.611Z,14.51
2018-01-29T13:23:43.492Z,14.54
2018-01-29T13:24:45.352Z,14.68
2018-01-29T13:25:47.214Z,14.55
2018-01-29T13:27:01.422Z,14.60
2018-01-29T13:28:03.305Z,14.57
2018-01-29T13:29:05.185Z,14.33
2018-01-29T13:30:07.052Z,14.33
2018-01-29T13:31:08.874Z,14.24
2018-01-29T13:32:10.702Z,14.17
2018-01-29T13:33:12.536Z,13.99
2018-01-29T13:34:14.403Z,13.71
2018-01-29T13:35:16.288Z,13.63
2018-01-29T13:36:30.448Z,13.48
2018-01-29T13:37:32.328Z,13.39
2018-01-29T13:38:34.218Z,13.23
2018-01-29T13:39:36.105Z,13.10
2018-01-29T13:40:37.913Z,13.07
2018-01-29T13:41:39.730Z,12.97